Time;durP1;ratioP1;P1;durP2;ratioP2;P2;SDS_P1;SDS_P2;PMS_P1;PMS_P2;Temp;Humidity;BMP_temperature;BMP_pressure;BME280_temperature;BME280_humidity;BME280_pressure;Samples;Min_cycle;Max_cycle;Signal;HPM_P1;HPM_P2
2021/07/25 00:01:59;;;;;;;8.50;6.47;;;22.40;99.90;;;;;;5036167;28;20471;-82
2021/07/25 00:04:31;;;;;;;7.00;6.37;;;22.50;99.90;;;;;;5032587;28;20456;-79
2021/07/25 00:07:00;;;;;;;8.43;6.00;;;22.40;99.90;;;;;;5032128;28;20476;-81
2021/07/25 00:09:28;;;;;;;7.73;6.37;;;22.40;99.90;;;;;;5013366;28;20444;-80
2021/07/25 00:11:56;;;;;;;9.00;5.43;;;22.50;1.00;;;;;;5034571;28;20490;-82
2021/07/25 00:14:24;;;;;;;7.43;6.57;;;22.60;99.90;;;;;;5033859;28;20448;-81
2021/07/25 00:16:55;;;;;;;7.60;5.53;;;22.70;1.00;;;;;;5032768;28;20475;-82
2021/07/25 00:19:24;;;;;;;6.80;5.40;;;22.80;67.10;;;;;;5034376;28;20443;-81
2021/07/25 00:21:53;;;;;;;5.40;4.90;;;22.80;1.00;;;;;;5033118;28;20894;-81
2021/07/25 00:24:29;;;;;;;6.60;5.90;;;22.90;1.00;;;;;;5034021;28;20459;-82
2021/07/25 00:26:59;;;;;;;8.03;7.23;;;22.70;99.90;;;;;;5031533;28;20477;-82
2021/07/25 00:29:30;;;;;;;5.40;4.53;;;22.50;99.90;;;;;;5036177;28;20454;-81
2021/07/25 00:32:00;;;;;;;6.10;5.50;;;22.40;1.00;;;;;;5034928;28;20474;-82
2021/07/25 00:34:30;;;;;;;7.67;5.97;;;22.30;99.90;;;;;;5034440;28;20462;-80
2021/07/25 00:36:58;;;;;;;8.57;6.03;;;22.30;99.90;;;;;;5013620;28;20459;-80
2021/07/25 00:39:28;;;;;;;6.70;5.30;;;22.40;99.90;;;;;;5036459;28;20518;-81
2021/07/25 00:41:56;;;;;;;5.77;5.00;;;22.60;1.00;;;;;;5034812;28;20470;-82
2021/07/25 00:44:24;;;;;;;7.80;6.00;;;22.60;1.00;;;;;;5034196;28;20451;-80
2021/07/25 00:46:57;;;;;;;8.10;6.40;;;22.60;1.00;;;;;;5028563;28;20454;-81
2021/07/25 00:49:26;;;;;;;7.20;5.93;;;22.60;99.90;;;;;;5035233;28;20510;-82
2021/07/25 00:51:54;;;;;;;5.97;4.60;;;22.60;96.20;;;;;;5017822;28;21111;-80
2021/07/25 00:54:23;;;;;;;7.57;6.83;;;22.70;1.00;;;;;;5035287;28;20456;-82
2021/07/25 00:56:53;;;;;;;6.20;5.60;;;22.80;1.00;;;;;;5033788;28;20480;-81
2021/07/25 00:59:21;;;;;;;6.27;5.67;;;22.90;99.90;;;;;;5034201;28;20448;-82
2021/07/25 01:01:49;;;;;;;8.27;5.40;;;22.80;25.10;;;;;;5030646;28;20491;-81
2021/07/25 01:04:31;;;;;;;6.80;6.03;;;22.90;41.10;;;;;;5032681;28;20509;-80
2021/07/25 01:07:08;;;;;;;5.37;4.87;;;22.90;99.90;;;;;;5031793;28;20453;-81
2021/07/25 01:09:44;;;;;;;8.80;5.73;;;22.90;99.90;;;;;;5017281;28;20483;-81
2021/07/25 01:12:19;;;;;;;8.37;4.97;;;22.90;1.00;;;;;;5031029;28;20482;-80
2021/07/25 01:14:49;;;;;;;6.00;5.43;;;22.90;1.00;;;;;;5015987;28;20458;-79
2021/07/25 01:17:32;;;;;;;8.30;5.33;;;22.80;1.00;;;;;;5033720;28;20501;-83
2021/07/25 01:20:04;;;;;;;5.60;5.00;;;22.80;1.00;;;;;;5031526;28;20452;-81
2021/07/25 01:22:35;;;;;;;5.50;4.70;;;22.60;1.00;;;;;;5034965;28;20471;-81
2021/07/25 01:25:06;;;;;;;5.43;4.93;;;22.50;99.90;;;;;;5015372;28;20546;-79
2021/07/25 01:27:39;;;;;;;5.83;5.23;;;22.40;1.00;;;;;;5033386;28;20440;-82
2021/07/25 01:30:11;;;;;;;5.47;4.67;;;22.50;99.90;;;;;;5033376;28;20462;-81
2021/07/25 01:32:41;;;;;;;9.63;5.37;;;22.30;1.00;;;;;;5033571;28;20475;-83
2021/07/25 01:35:13;;;;;;;9.43;5.90;;;22.30;99.90;;;;;;5033188;28;20451;-79
2021/07/25 01:37:42;;;;;;;6.80;4.70;;;22.30;99.90;;;;;;5033434;28;20486;-79
2021/07/25 01:40:15;;;;;;;5.90;5.10;;;22.40;99.90;;;;;;5033499;28;20453;-80
2021/07/25 01:42:44;;;;;;;7.60;5.10;;;22.30;99.90;;;;;;5012893;28;20483;-80
2021/07/25 01:45:13;;;;;;;8.60;5.63;;;22.50;99.90;;;;;;5032733;28;20460;-82
2021/07/25 01:47:42;;;;;;;6.20;5.57;;;22.60;99.90;;;;;;5033013;28;20502;-82
2021/07/25 01:50:12;;;;;;;7.73;5.80;;;22.70;1.00;;;;;;5032143;28;20518;-79
2021/07/25 01:52:42;;;;;;;6.30;5.80;;;22.70;1.00;;;;;;5022360;28;20873;-81
2021/07/25 01:55:11;;;;;;;7.40;5.70;;;22.60;1.00;;;;;;5032996;28;20456;-80
2021/07/25 01:57:39;;;;;;;7.10;4.70;;;22.50;99.90;;;;;;5025088;28;20917;-80
2021/07/25 02:00:09;;;;;;;7.60;6.10;;;22.50;99.90;;;;;;5031010;28;20469;-81
2021/07/25 02:02:37;;;;;;;6.93;5.50;;;22.50;1.00;;;;;;5035006;28;20482;-80
2021/07/25 02:05:06;;;;;;;6.93;5.13;;;22.60;1.00;;;;;;5032433;28;20444;-80
2021/07/25 02:07:37;;;;;;;6.27;5.67;;;22.50;1.00;;;;;;5033844;28;20435;-83
2021/07/25 02:10:05;;;;;;;6.73;5.47;;;22.50;1.00;;;;;;5030287;28;20875;-82
2021/07/25 02:12:34;;;;;;;6.60;5.67;;;22.40;99.30;;;;;;5014538;28;20479;-82
2021/07/25 02:15:02;;;;;;;6.03;5.00;;;22.50;1.00;;;;;;5033179;28;20462;-83
2021/07/25 02:17:30;;;;;;;5.30;4.80;;;22.50;1.00;;;;;;5030030;28;20462;-80
2021/07/25 02:19:59;;;;;;;4.97;4.40;;;22.40;1.00;;;;;;5038477;28;20938;-82
2021/07/25 02:22:27;;;;;;;5.27;4.50;;;22.40;99.90;;;;;;5034619;28;20471;-81
2021/07/25 02:24:57;;;;;;;5.40;4.67;;;22.50;1.00;;;;;;5038426;28;20478;-82
2021/07/25 02:27:25;;;;;;;5.73;4.20;;;22.60;99.90;;;;;;5035071;28;21141;-80
2021/07/25 02:29:53;;;;;;;7.90;5.00;;;22.60;99.90;;;;;;5035857;28;20455;-79
2021/07/25 02:32:21;;;;;;;5.63;4.43;;;22.60;99.90;;;;;;5033700;28;20773;-82
2021/07/25 02:34:49;;;;;;;3.97;3.30;;;22.50;1.00;;;;;;5032509;28;20541;-82
2021/07/25 02:37:17;;;;;;;6.20;4.80;;;22.50;99.90;;;;;;5033144;28;20548;-81
2021/07/25 02:39:46;;;;;;;5.03;4.10;;;22.60;99.90;;;;;;5018322;28;20463;-81
2021/07/25 02:42:15;;;;;;;4.93;4.13;;;22.50;99.90;;;;;;5034267;28;20482;-82
2021/07/25 02:44:43;;;;;;;5.53;3.97;;;22.50;99.90;;;;;;5034914;28;20963;-78
2021/07/25 02:47:11;;;;;;;5.40;4.90;;;22.50;99.90;;;;;;5015123;28;20461;-79
2021/07/25 02:49:39;;;;;;;5.80;4.30;;;22.50;1.00;;;;;;5032946;28;20463;-80
2021/07/25 02:52:07;;;;;;;5.33;4.23;;;22.50;1.00;;;;;;5034730;28;20461;-78
2021/07/25 02:54:35;;;;;;;6.30;4.77;;;22.30;1.00;;;;;;5019184;28;20695;-81
2021/07/25 02:57:04;;;;;;;5.17;4.33;;;22.10;99.90;;;;;;5032429;28;21010;-80
2021/07/25 02:59:33;;;;;;;5.17;3.53;;;22.00;99.90;;;;;;5017216;28;20465;-81
2021/07/25 03:02:01;;;;;;;3.83;3.53;;;22.00;1.00;;;;;;5015469;28;20476;-81
2021/07/25 03:04:29;;;;;;;4.80;4.30;;;22.00;99.90;;;;;;5035016;28;20450;-80
2021/07/25 03:06:58;;;;;;;5.73;4.40;;;22.00;1.00;;;;;;5016654;28;20518;-79
2021/07/25 03:09:26;;;;;;;5.40;4.00;;;22.10;1.00;;;;;;5034314;28;20447;-78
2021/07/25 03:11:54;;;;;;;5.23;4.30;;;22.20;1.00;;;;;;5035731;28;21004;-78
2021/07/25 03:14:22;;;;;;;5.00;4.50;;;22.20;99.90;;;;;;5033198;28;20458;-80
2021/07/25 03:16:51;;;;;;;4.50;3.90;;;22.30;99.90;;;;;;5033672;28;20541;-81
2021/07/25 03:19:19;;;;;;;3.90;3.60;;;22.30;48.80;;;;;;5033345;28;20543;-80
2021/07/25 03:21:47;;;;;;;7.07;3.33;;;22.30;1.00;;;;;;5032655;28;20899;-78
2021/07/25 03:24:16;;;;;;;4.30;3.67;;;22.40;99.90;;;;;;5032308;28;20458;-79
2021/07/25 03:26:44;;;;;;;4.20;3.57;;;22.40;1.00;;;;;;5020594;28;20451;-80
2021/07/25 03:29:12;;;;;;;4.77;3.87;;;22.30;1.00;;;;;;5032927;28;20451;-80
2021/07/25 03:31:40;;;;;;;5.90;5.40;;;22.10;99.90;;;;;;5033041;28;20508;-79
2021/07/25 03:34:09;;;;;;;4.30;3.90;;;22.00;1.00;;;;;;5032864;28;20495;-80
2021/07/25 03:36:38;;;;;;;4.03;3.47;;;21.80;1.00;;;;;;5033105;28;20519;-83
2021/07/25 03:39:11;;;;;;;8.43;3.80;;;21.80;1.00;;;;;;5015400;28;20547;-81
2021/07/25 03:41:39;;;;;;;3.37;3.10;;;21.70;99.90;;;;;;5036010;28;21061;-80
2021/07/25 03:44:07;;;;;;;3.67;3.03;;;21.60;99.90;;;;;;5035091;28;20454;-81
2021/07/25 03:46:36;;;;;;;3.10;2.80;;;21.60;99.90;;;;;;5034356;28;21092;-79
2021/07/25 03:49:04;;;;;;;3.77;3.30;;;21.60;99.90;;;;;;5020886;28;20531;-82
2021/07/25 03:51:34;;;;;;;6.57;3.73;;;21.60;99.90;;;;;;5036674;28;20494;-81
2021/07/25 03:54:02;;;;;;;8.77;4.80;;;21.70;99.90;;;;;;5020479;28;20468;-83
2021/07/25 03:56:30;;;;;;;5.50;4.37;;;21.70;99.90;;;;;;5033089;28;20540;-82
2021/07/25 03:58:58;;;;;;;3.40;3.10;;;21.70;1.00;;;;;;5034993;28;20511;-81
2021/07/25 04:01:26;;;;;;;3.63;3.20;;;21.70;1.00;;;;;;5015431;28;20536;-82
2021/07/25 04:03:55;;;;;;;3.83;3.53;;;21.60;99.90;;;;;;5016770;28;20456;-81
2021/07/25 04:06:23;;;;;;;3.93;2.60;;;21.80;99.90;;;;;;5034772;28;20690;-81
2021/07/25 04:08:52;;;;;;;3.43;2.60;;;21.90;1.00;;;;;;5021443;28;20439;-80
2021/07/25 04:11:21;;;;;;;13.57;4.33;;;21.90;1.00;;;;;;5033795;28;20454;-80
2021/07/25 04:13:49;;;;;;;4.37;3.97;;;21.90;99.90;;;;;;5032601;28;20942;-80
2021/07/25 04:16:17;;;;;;;3.67;3.40;;;21.80;1.00;;;;;;5032940;28;20529;-81
2021/07/25 04:18:45;;;;;;;3.17;2.93;;;21.70;1.00;;;;;;5033783;28;20468;-82
2021/07/25 04:21:13;;;;;;;3.23;2.93;;;21.70;1.00;;;;;;5034060;28;20448;-80
2021/07/25 04:23:42;;;;;;;3.23;2.93;;;21.80;99.90;;;;;;5032648;28;20469;-81
2021/07/25 04:26:12;;;;;;;3.73;3.20;;;21.80;1.00;;;;;;5031400;28;20453;-80
2021/07/25 04:28:41;;;;;;;2.87;2.63;;;21.80;1.00;;;;;;5032017;28;20452;-79
2021/07/25 04:31:10;;;;;;;3.57;3.23;;;21.90;1.00;;;;;;5030896;28;20459;-82
2021/07/25 04:33:40;;;;;;;4.53;3.10;;;21.80;1.00;;;;;;5032271;28;20950;-80
2021/07/25 04:36:12;;;;;;;3.53;3.30;;;21.90;1.00;;;;;;5012849;28;20878;-79
2021/07/25 04:38:41;;;;;;;5.23;3.47;;;21.80;99.90;;;;;;5030790;28;20892;-79
2021/07/25 04:41:13;;;;;;;3.90;3.60;;;21.80;1.00;;;;;;5025645;28;20446;-79
2021/07/25 04:43:42;;;;;;;4.90;3.00;;;21.90;1.00;;;;;;5030675;28;20458;-80
2021/07/25 04:46:15;;;;;;;3.50;3.20;;;21.90;1.00;;;;;;5030508;28;20541;-80
2021/07/25 04:48:47;;;;;;;2.93;2.60;;;22.00;99.90;;;;;;5030111;28;20459;-81
2021/07/25 04:51:16;;;;;;;3.97;3.57;;;22.00;1.00;;;;;;5033457;28;20455;-81
2021/07/25 04:53:45;;;;;;;4.93;3.60;;;22.10;1.00;;;;;;5031726;28;20503;-82
2021/07/25 04:56:15;;;;;;;3.63;3.30;;;22.00;1.00;;;;;;5015231;28;20520;-81
2021/07/25 04:58:47;;;;;;;4.33;3.20;;;22.00;99.90;;;;;;5033151;28;20531;-81
2021/07/25 05:01:18;;;;;;;3.43;3.10;;;21.90;1.10;;;;;;5022532;28;20462;-82
2021/07/25 05:03:48;;;;;;;4.10;3.80;;;22.00;1.00;;;;;;5033061;28;20976;-81
2021/07/25 05:06:16;;;;;;;5.77;3.30;;;22.00;1.00;;;;;;5031318;28;20460;-82
2021/07/25 05:08:45;;;;;;;3.00;2.47;;;22.10;1.00;;;;;;5019701;28;20509;-81
2021/07/25 05:11:18;;;;;;;5.30;3.00;;;22.20;1.00;;;;;;5030560;28;20529;-81
2021/07/25 05:13:48;;;;;;;3.20;2.90;;;22.20;1.00;;;;;;5030721;28;20752;-80
2021/07/25 05:16:26;;;;;;;5.70;2.67;;;22.00;99.90;;;;;;5013275;28;20483;-81
2021/07/25 05:19:05;;;;;;;3.73;2.80;;;22.00;99.90;;;;;;5029427;28;20841;-80
2021/07/25 05:21:39;;;;;;;2.63;2.43;;;21.90;12.40;;;;;;5028309;28;20532;-82
2021/07/25 05:24:09;;;;;;;4.73;2.87;;;22.00;99.90;;;;;;5032636;28;20459;-82
2021/07/25 05:26:40;;;;;;;3.53;2.63;;;22.00;99.90;;;;;;5033047;28;20453;-82
2021/07/25 05:29:09;;;;;;;3.37;3.07;;;22.00;1.00;;;;;;5034461;28;20446;-80
2021/07/25 05:31:37;;;;;;;2.00;1.90;;;21.90;1.00;;;;;;5021557;28;21025;-81
2021/07/25 05:34:07;;;;;;;3.20;2.93;;;21.80;1.00;;;;;;5017131;28;20449;-82
2021/07/25 05:36:35;;;;;;;3.23;3.00;;;21.70;99.90;;;;;;5032809;28;20442;-82
2021/07/25 05:39:03;;;;;;;2.53;2.33;;;21.70;1.00;;;;;;5032745;28;21261;-82
2021/07/25 05:41:31;;;;;;;2.77;2.57;;;21.80;99.90;;;;;;5032483;28;20877;-82
2021/07/25 05:44:00;;;;;;;2.33;2.17;;;21.80;1.00;;;;;;5015437;28;20993;-81
2021/07/25 05:46:29;;;;;;;3.80;2.40;;;21.80;1.00;;;;;;5032223;28;20940;-79
2021/07/25 05:48:57;;;;;;;3.07;2.87;;;21.70;1.00;;;;;;5014362;28;20460;-81
2021/07/25 05:51:25;;;;;;;3.93;2.17;;;21.70;1.00;;;;;;5032504;28;20451;-79
2021/07/25 05:53:53;;;;;;;2.97;2.67;;;21.60;1.00;;;;;;5032864;28;20457;-81
2021/07/25 05:56:21;;;;;;;4.20;2.07;;;21.60;1.00;;;;;;5031041;28;20471;-82
2021/07/25 05:58:49;;;;;;;2.60;2.40;;;21.80;1.00;;;;;;5031668;28;20475;-82
2021/07/25 06:01:19;;;;;;;2.90;2.27;;;21.80;1.00;;;;;;5030653;28;20451;-82
2021/07/25 06:03:47;;;;;;;2.87;2.30;;;21.90;32.60;;;;;;5028315;28;20491;-81
2021/07/25 06:06:15;;;;;;;2.40;2.20;;;22.00;70.40;;;;;;5032796;28;20449;-81
2021/07/25 06:08:43;;;;;;;3.03;2.43;;;22.00;99.90;;;;;;5029917;28;20575;-82
2021/07/25 06:11:11;;;;;;;2.40;2.20;;;22.00;99.90;;;;;;5030651;28;21024;-81
2021/07/25 06:13:39;;;;;;;3.80;2.63;;;22.10;99.90;;;;;;5029213;28;20461;-82
2021/07/25 06:16:08;;;;;;;3.03;2.57;;;22.10;1.00;;;;;;5028158;28;20456;-82
2021/07/25 06:18:37;;;;;;;2.60;2.40;;;22.00;99.90;;;;;;5011730;28;20821;-80
2021/07/25 06:21:05;;;;;;;3.37;2.53;;;22.00;99.90;;;;;;5029206;28;20464;-82
2021/07/25 06:23:33;;;;;;;2.63;2.13;;;22.10;1.00;;;;;;5019233;28;21088;-81
2021/07/25 06:26:01;;;;;;;2.40;2.20;;;22.20;1.00;;;;;;5028003;28;20911;-82
2021/07/25 06:28:29;;;;;;;4.00;2.57;;;22.30;99.90;;;;;;5011592;28;20490;-82
2021/07/25 06:30:57;;;;;;;2.90;2.30;;;22.40;99.90;;;;;;5026612;28;20459;-81
2021/07/25 06:33:28;;;;;;;2.40;2.20;;;22.40;1.00;;;;;;5029830;28;20468;-81
2021/07/25 06:35:58;;;;;;;2.30;2.10;;;22.50;99.90;;;;;;5028853;28;20542;-80
2021/07/25 06:38:26;;;;;;;2.70;2.50;;;22.50;1.00;;;;;;5030473;28;20455;-80
2021/07/25 06:40:55;;;;;;;6.00;2.60;;;22.30;99.90;;;;;;5028220;28;20514;-82
2021/07/25 06:43:25;;;;;;;4.53;3.07;;;22.40;99.90;;;;;;5009834;28;20469;-82
2021/07/25 06:45:53;;;;;;;2.70;2.50;;;22.30;1.00;;;;;;5010297;28;20447;-80
2021/07/25 06:48:23;;;;;;;2.60;2.40;;;22.40;1.00;;;;;;5010270;28;20460;-81
2021/07/25 06:50:52;;;;;;;3.73;2.47;;;22.40;99.90;;;;;;5028625;28;20498;-82
2021/07/25 06:53:23;;;;;;;4.77;2.70;;;22.40;99.90;;;;;;5027908;28;20502;-82
2021/07/25 06:55:53;;;;;;;3.50;2.40;;;22.40;1.00;;;;;;5025347;28;20541;-82
2021/07/25 06:58:21;;;;;;;3.00;2.20;;;22.50;1.00;;;;;;5028904;28;20452;-82
2021/07/25 07:00:50;;;;;;;2.93;2.63;;;22.60;75.60;;;;;;5016814;28;20477;-81
2021/07/25 07:03:19;;;;;;;2.60;2.40;;;22.70;99.90;;;;;;5019955;28;21060;-81
2021/07/25 07:05:48;;;;;;;2.30;2.10;;;22.80;99.90;;;;;;5027354;28;20456;-81
2021/07/25 07:08:16;;;;;;;4.13;2.50;;;22.80;99.90;;;;;;5010298;28;20497;-81
2021/07/25 07:10:47;;;;;;;2.40;2.20;;;22.90;99.90;;;;;;5031207;28;20466;-81
2021/07/25 07:13:17;;;;;;;2.40;2.20;;;22.90;1.00;;;;;;5031779;28;20902;-83
2021/07/25 07:15:47;;;;;;;2.50;2.30;;;22.90;1.00;;;;;;5029975;28;20456;-82
2021/07/25 07:18:16;;;;;;;2.63;2.40;;;23.00;99.90;;;;;;5028641;28;20547;-80
2021/07/25 07:20:45;;;;;;;2.70;2.50;;;23.10;11.30;;;;;;5017539;28;20856;-79
2021/07/25 07:23:16;;;;;;;2.70;2.50;;;23.20;1.00;;;;;;5040279;28;20475;-81
2021/07/25 07:25:48;;;;;;;3.20;2.90;;;23.20;1.00;;;;;;5023990;28;20986;-80
2021/07/25 07:28:18;;;;;;;3.70;2.67;;;23.20;99.90;;;;;;5031944;28;20514;-81
2021/07/25 07:30:47;;;;;;;3.03;2.60;;;23.30;99.90;;;;;;5032028;28;20447;-79
2021/07/25 07:33:16;;;;;;;3.83;2.77;;;23.20;99.90;;;;;;5028378;28;20475;-81
2021/07/25 07:35:45;;;;;;;3.80;2.50;;;23.10;99.90;;;;;;5012996;28;20838;-80
2021/07/25 07:38:15;;;;;;;2.70;2.50;;;23.10;99.90;;;;;;5032170;28;20522;-80
2021/07/25 07:40:45;;;;;;;2.80;2.40;;;23.10;99.90;;;;;;5031787;28;20529;-80
2021/07/25 07:43:16;;;;;;;2.60;2.40;;;23.20;99.90;;;;;;5030579;28;20468;-80
2021/07/25 07:45:45;;;;;;;3.30;3.00;;;23.30;99.90;;;;;;5029139;28;20459;-81
2021/07/25 07:48:13;;;;;;;2.30;2.10;;;23.20;99.90;;;;;;5031739;28;20456;-81
2021/07/25 07:50:43;;;;;;;2.40;2.20;;;23.20;99.90;;;;;;5032215;28;20448;-81
2021/07/25 07:53:11;;;;;;;3.50;2.80;;;23.20;99.90;;;;;;5031502;28;20557;-82
2021/07/25 07:55:39;;;;;;;2.90;2.60;;;23.20;99.90;;;;;;5029871;28;21209;-83
2021/07/25 07:58:07;;;;;;;4.43;2.50;;;23.20;99.90;;;;;;5031021;28;20825;-82
2021/07/25 08:00:37;;;;;;;2.40;2.10;;;23.40;99.90;;;;;;5014770;28;20884;-83
2021/07/25 08:03:06;;;;;;;4.43;2.70;;;23.40;99.90;;;;;;5032705;28;20480;-84
2021/07/25 08:05:34;;;;;;;2.83;2.63;;;23.50;99.90;;;;;;5022456;28;20524;-86
2021/07/25 08:08:03;;;;;;;6.77;4.30;;;23.50;99.90;;;;;;5028973;28;20450;-85
2021/07/25 08:10:32;;;;;;;2.90;2.53;;;23.50;99.90;;;;;;5032152;28;20977;-85
2021/07/25 08:13:00;;;;;;;2.87;2.67;;;23.50;99.90;;;;;;5017631;28;20576;-84
2021/07/25 08:15:28;;;;;;;3.70;2.63;;;23.40;99.90;;;;;;5030828;28;20510;-84
2021/07/25 08:17:58;;;;;;;2.83;2.63;;;23.30;99.90;;;;;;5032350;28;20514;-84
2021/07/25 08:20:26;;;;;;;2.63;2.40;;;23.30;99.90;;;;;;5031792;28;20476;-83
2021/07/25 08:22:54;;;;;;;3.40;2.33;;;23.20;99.90;;;;;;5014987;28;20476;-84
2021/07/25 08:25:22;;;;;;;3.67;2.23;;;23.10;19.50;;;;;;5030079;28;20449;-83
2021/07/25 08:27:51;;;;;;;2.50;2.30;;;23.10;26.00;;;;;;5016235;28;20460;-85
2021/07/25 08:30:19;;;;;;;2.67;2.47;;;23.10;83.60;;;;;;5034935;28;20462;-83
2021/07/25 08:32:47;;;;;;;3.13;2.93;;;23.10;99.90;;;;;;5030450;28;20469;-81
2021/07/25 08:35:16;;;;;;;2.93;2.63;;;23.00;98.00;;;;;;5029855;28;20468;-83
2021/07/25 08:37:45;;;;;;;2.13;2.03;;;22.90;99.90;;;;;;5031426;28;20447;-85
2021/07/25 08:40:15;;;;;;;2.80;2.60;;;22.80;99.90;;;;;;5029858;28;20452;-84
2021/07/25 08:42:49;;;;;;;2.83;2.10;;;22.80;99.90;;;;;;5030456;28;20584;-83
2021/07/25 08:45:18;;;;;;;2.83;2.63;;;22.90;99.90;;;;;;5022678;28;20943;-83
2021/07/25 08:47:53;;;;;;;3.27;2.97;;;23.00;99.90;;;;;;5016785;28;20955;-83
2021/07/25 08:50:27;;;;;;;3.20;3.00;;;23.00;99.90;;;;;;5032898;28;20441;-84
2021/07/25 08:52:56;;;;;;;3.20;2.63;;;23.00;99.90;;;;;;5029479;28;20492;-83
2021/07/25 08:55:24;;;;;;;2.40;2.20;;;23.10;99.90;;;;;;5031303;28;20456;-84
2021/07/25 08:57:53;;;;;;;2.70;2.50;;;22.90;99.90;;;;;;5032248;28;21013;-83
2021/07/25 09:00:23;;;;;;;6.17;2.97;;;22.90;99.90;;;;;;5032098;28;20460;-85
2021/07/25 09:02:52;;;;;;;3.30;3.10;;;22.70;99.90;;;;;;5016744;28;20483;-83
2021/07/25 09:05:23;;;;;;;4.77;3.57;;;22.60;1.00;;;;;;5032156;28;20452;-83
2021/07/25 09:07:53;;;;;;;3.47;3.17;;;22.70;1.00;;;;;;5015924;28;20498;-80
2021/07/25 09:10:24;;;;;;;3.80;3.40;;;22.70;1.00;;;;;;5017585;28;21031;-84
2021/07/25 09:12:55;;;;;;;4.67;3.07;;;22.80;1.00;;;;;;5034245;28;20757;-83
2021/07/25 09:15:26;;;;;;;3.93;3.33;;;22.80;1.00;;;;;;5030550;28;20455;-83
2021/07/25 09:17:56;;;;;;;3.43;3.13;;;23.00;1.00;;;;;;5031466;28;20437;-84
2021/07/25 09:20:27;;;;;;;5.00;3.30;;;23.10;1.00;;;;;;5024444;28;20447;-82
2021/07/25 09:23:09;;;;;;;4.10;2.97;;;23.20;1.00;;;;;;5029951;28;20484;-83
2021/07/25 09:25:40;;;;;;;4.17;3.77;;;23.10;99.90;;;;;;5013544;28;20498;-84
2021/07/25 09:28:29;;;;;;;4.97;4.07;;;23.00;99.90;;;;;;5032087;28;20892;-83
2021/07/25 09:31:10;;;;;;;4.40;3.37;;;23.00;1.00;;;;;;5031397;28;20440;-83
2021/07/25 09:33:45;;;;;;;4.80;2.80;;;23.00;99.90;;;;;;5014554;28;20468;-81
2021/07/25 09:36:18;;;;;;;3.17;2.87;;;22.90;99.90;;;;;;5032101;28;20958;-84
2021/07/25 09:38:48;;;;;;;4.17;3.20;;;22.80;99.90;;;;;;5028639;28;20452;-85
2021/07/25 09:41:19;;;;;;;3.60;3.30;;;22.70;1.00;;;;;;5013871;28;20518;-82
2021/07/25 09:44:08;;;;;;;3.30;2.93;;;22.80;1.00;;;;;;5032575;28;20550;-82
2021/07/25 09:46:48;;;;;;;3.30;2.63;;;22.70;1.00;;;;;;5030199;28;20980;-80
2021/07/25 09:49:18;;;;;;;3.07;2.77;;;22.70;1.00;;;;;;5036282;28;20454;-85
2021/07/25 09:51:49;;;;;;;4.67;2.63;;;22.60;1.00;;;;;;5032471;28;21207;-82
2021/07/25 09:54:25;;;;;;;2.67;2.47;;;22.50;1.00;;;;;;5034749;28;20509;-84
2021/07/25 09:57:09;;;;;;;3.13;2.83;;;22.50;99.90;;;;;;5030623;28;20542;-83
2021/07/25 09:59:38;;;;;;;3.70;3.37;;;22.60;99.90;;;;;;5031860;28;20448;-82
2021/07/25 10:02:29;;;;;;;3.23;2.93;;;22.70;1.00;;;;;;5029185;28;20908;-83
2021/07/25 10:05:10;;;;;;;3.30;3.00;;;22.60;99.90;;;;;;5024464;28;20511;-82
2021/07/25 10:07:39;;;;;;;3.30;3.00;;;22.50;1.00;;;;;;5022702;28;20475;-83
2021/07/25 10:10:10;;;;;;;5.20;3.60;;;22.60;1.00;;;;;;5023755;28;20887;-83
2021/07/25 10:12:40;;;;;;;4.20;3.80;;;22.50;1.00;;;;;;5007127;28;20479;-84
2021/07/25 10:15:10;;;;;;;2.80;2.60;;;22.50;1.00;;;;;;5020162;28;20626;-82
2021/07/25 10:17:41;;;;;;;3.90;2.80;;;22.60;99.90;;;;;;5016036;28;21066;-82
2021/07/25 10:20:11;;;;;;;3.10;2.80;;;22.50;1.00;;;;;;5020896;28;20459;-81
2021/07/25 10:22:41;;;;;;;3.50;2.70;;;22.60;99.90;;;;;;5021097;28;20480;-80
2021/07/25 10:25:12;;;;;;;3.47;3.13;;;22.60;99.90;;;;;;5023930;28;20445;-81
2021/07/25 10:27:41;;;;;;;4.43;3.27;;;22.70;1.00;;;;;;5020698;28;20735;-79
2021/07/25 10:30:10;;;;;;;3.40;3.10;;;22.60;86.00;;;;;;5017755;28;20444;-82
2021/07/25 10:32:41;;;;;;;3.73;3.13;;;22.60;1.00;;;;;;5025495;28;20480;-81
2021/07/25 10:35:12;;;;;;;8.90;4.10;;;22.50;99.90;;;;;;5019203;28;20515;-82
2021/07/25 10:37:44;;;;;;;3.43;3.13;;;22.40;99.90;;;;;;5022962;28;20866;-78
2021/07/25 10:40:14;;;;;;;3.70;3.40;;;22.40;99.90;;;;;;5020576;28;20927;-81
2021/07/25 10:42:48;;;;;;;6.20;4.50;;;22.40;99.90;;;;;;5023336;28;20524;-80
2021/07/25 10:45:16;;;;;;;4.07;3.77;;;22.40;1.00;;;;;;5022950;28;20518;-80
2021/07/25 10:47:46;;;;;;;4.10;3.70;;;22.40;99.90;;;;;;5021056;28;20454;-80
2021/07/25 10:50:18;;;;;;;4.43;4.10;;;22.40;1.00;;;;;;5030082;28;20458;-80
2021/07/25 10:53:04;;;;;;;4.73;4.00;;;22.40;99.90;;;;;;5029032;28;20526;-80
2021/07/25 10:55:48;;;;;;;5.57;4.57;;;22.40;99.90;;;;;;5032058;28;20478;-81
2021/07/25 10:58:18;;;;;;;7.20;4.63;;;22.40;99.90;;;;;;5031432;28;20452;-81
2021/07/25 11:00:49;;;;;;;5.37;3.90;;;22.30;46.40;;;;;;5030096;28;20512;-80
2021/07/25 11:03:41;;;;;;;3.93;3.63;;;22.40;1.00;;;;;;5015336;28;20475;-81
2021/07/25 11:06:19;;;;;;;5.43;4.00;;;22.40;1.00;;;;;;5014746;28;20475;-82
2021/07/25 11:08:54;;;;;;;5.00;4.50;;;22.40;1.00;;;;;;5031621;28;20802;-83
2021/07/25 11:11:58;;;;;;;5.30;3.80;;;22.40;36.00;;;;;;5031617;28;20458;-83
2021/07/25 11:15:08;;;;;;;5.93;3.40;;;22.40;1.00;;;;;;4975650;28;21010;-83
2021/07/25 11:18:01;;;;;;;4.87;4.00;;;22.50;1.00;;;;;;5016102;28;20447;-81
2021/07/25 11:21:01;;;;;;;5.13;4.63;;;22.50;80.90;;;;;;4995617;28;20464;-83
2021/07/25 11:23:39;;;;;;;4.83;4.23;;;22.50;99.90;;;;;;5003969;28;20496;-83
2021/07/25 11:26:34;;;;;;;4.90;4.33;;;22.50;99.90;;;;;;5029190;28;20440;-83
2021/07/25 11:29:12;;;;;;;4.60;4.20;;;22.50;99.90;;;;;;5012091;28;20459;-81
2021/07/25 11:31:42;;;;;;;6.27;5.50;;;22.50;99.90;;;;;;5029428;28;20474;-82
2021/07/25 11:34:15;;;;;;;4.87;4.23;;;22.50;1.00;;;;;;5018947;28;20459;-83
2021/07/25 11:36:45;;;;;;;5.33;4.83;;;22.50;99.90;;;;;;5035496;28;20454;-82
2021/07/25 11:39:14;;;;;;;5.90;4.60;;;22.50;1.00;;;;;;5014774;28;20448;-81
2021/07/25 11:41:47;;;;;;;6.47;5.27;;;22.50;99.90;;;;;;5031402;28;20496;-82
2021/07/25 11:44:16;;;;;;;3.80;3.50;;;22.60;1.00;;;;;;5029843;28;20490;-82
2021/07/25 11:46:50;;;;;;;8.10;5.67;;;22.60;99.90;;;;;;5035360;28;20490;-82
2021/07/25 11:49:20;;;;;;;7.33;4.90;;;22.60;1.00;;;;;;5033841;28;20517;-82
2021/07/25 11:51:51;;;;;;;4.77;4.10;;;22.60;1.00;;;;;;5014845;28;20489;-82
2021/07/25 11:54:22;;;;;;;4.70;3.33;;;22.60;99.90;;;;;;5012944;28;20448;-83
2021/07/25 11:57:10;;;;;;;4.90;3.67;;;22.50;1.00;;;;;;5031745;28;20530;-84
2021/07/25 11:59:40;;;;;;;4.40;3.80;;;22.40;1.00;;;;;;5006117;28;21013;-84
2021/07/25 12:02:09;;;;;;;4.20;3.90;;;22.40;99.90;;;;;;5024857;28;20475;-84
2021/07/25 12:04:42;;;;;;;3.30;3.00;;;22.30;1.00;;;;;;5020060;28;20463;-80
2021/07/25 12:07:12;;;;;;;6.03;3.70;;;22.20;99.90;;;;;;5030206;28;20983;-81
2021/07/25 12:09:44;;;;;;;4.10;3.73;;;22.20;1.00;;;;;;5029351;28;20451;-82
2021/07/25 12:12:16;;;;;;;4.63;3.43;;;22.20;1.00;;;;;;5027552;28;20486;-81
2021/07/25 12:14:46;;;;;;;4.37;3.43;;;22.10;99.90;;;;;;5037653;28;20446;-81
2021/07/25 12:17:48;;;;;;;4.00;3.20;;;22.00;1.00;;;;;;5033087;28;20438;-79
2021/07/25 12:20:18;;;;;;;4.20;3.80;;;22.10;1.00;;;;;;5033004;28;20501;-81
2021/07/25 12:22:51;;;;;;;3.50;3.20;;;22.00;1.00;;;;;;5031571;28;20525;-80
2021/07/25 12:25:19;;;;;;;4.03;3.30;;;22.20;1.00;;;;;;5032574;28;20828;-81
2021/07/25 12:28:02;;;;;;;3.80;3.47;;;22.20;99.90;;;;;;5032808;28;20455;-82
2021/07/25 12:30:40;;;;;;;4.60;3.47;;;22.20;1.00;;;;;;5031917;28;20452;-82
2021/07/25 12:33:09;;;;;;;2.83;2.37;;;22.10;1.00;;;;;;5030945;28;20470;-78
2021/07/25 12:35:38;;;;;;;4.23;3.30;;;22.10;1.00;;;;;;5034141;28;20521;-80
2021/07/25 12:38:10;;;;;;;7.30;3.10;;;22.20;99.90;;;;;;5026399;28;20447;-82
2021/07/25 12:40:49;;;;;;;3.07;2.60;;;22.10;1.00;;;;;;5030084;28;20454;-83
2021/07/25 12:43:19;;;;;;;2.63;2.30;;;22.20;1.00;;;;;;5031340;28;20488;-81
2021/07/25 12:45:48;;;;;;;4.23;3.70;;;22.30;1.00;;;;;;5012245;28;20517;-83
2021/07/25 12:48:27;;;;;;;2.90;2.60;;;22.40;37.00;;;;;;5031145;28;20832;-83
2021/07/25 12:53:56;;;;;;;3.10;2.77;;;22.50;99.90;;;;;;5014302;28;20931;-82
2021/07/25 12:56:26;;;;;;;3.57;2.90;;;22.60;1.00;;;;;;5028830;28;20470;-82
2021/07/25 12:58:58;;;;;;;3.40;3.10;;;22.70;99.90;;;;;;5005840;28;20456;-83
2021/07/25 13:04:25;;;;;;;3.83;3.50;;;22.70;1.00;;;;;;5027839;28;20480;-82
2021/07/25 13:06:54;;;;;;;3.03;2.77;;;22.70;1.00;;;;;;5029529;28;20505;-83
2021/07/25 13:09:23;;;;;;;3.60;3.30;;;22.80;99.90;;;;;;5031523;28;20585;-82
2021/07/25 13:11:53;;;;;;;4.00;3.20;;;22.80;90.70;;;;;;5030602;28;20495;-82
2021/07/25 13:14:26;;;;;;;4.87;4.07;;;22.80;99.90;;;;;;5029474;28;20486;-83
2021/07/25 13:16:55;;;;;;;3.90;3.47;;;22.80;99.90;;;;;;5030377;28;20451;-83